Time;durP1;ratioP1;P1;durP2;ratioP2;P2;SDS_P1;SDS_P2;PMS_P1;PMS_P2;Temp;Humidity;BMP_temperature;BMP_pressure;BME280_temperature;BME280_humidity;BME280_pressure;Samples;Min_cycle;Max_cycle;Signal;HPM_P1;HPM_P2
2022/08/09 00:00:22;;;;;;;3.05;1.25;;;20.00;55.80;;;19.32;42.73;97866.25;5072637;28;20446;-72
2022/08/09 00:02:48;;;;;;;1.73;1.17;;;19.90;56.10;;;19.36;42.44;97869.16;5072500;28;20404;-72
2022/08/09 00:05:14;;;;;;;1.75;1.20;;;20.00;56.00;;;19.41;41.94;97866.38;5072772;28;20930;-73
2022/08/09 00:07:42;;;;;;;3.65;1.30;;;20.00;55.70;;;19.40;42.40;97872.84;5072732;28;20854;-70
2022/08/09 00:10:09;;;;;;;1.15;1.02;;;20.00;55.90;;;19.39;42.75;97871.28;5072484;28;20897;-73
2022/08/09 00:12:36;;;;;;;1.83;1.10;;;20.00;56.00;;;19.40;43.19;97872.84;5072684;28;20886;-72
2022/08/09 00:15:03;;;;;;;2.10;1.25;;;20.00;56.50;;;19.45;43.56;97866.59;5072135;28;20400;-70
2022/08/09 00:17:29;;;;;;;1.85;1.27;;;20.00;57.00;;;19.38;43.33;97869.66;5072463;28;20400;-70
2022/08/09 00:19:55;;;;;;;1.77;1.30;;;19.90;56.80;;;19.36;43.55;97871.06;5072372;28;20412;-70
2022/08/09 00:22:21;;;;;;;3.70;1.08;;;19.90;57.00;;;19.19;43.67;97871.59;5072396;28;20925;-70
2022/08/09 00:24:47;;;;;;;2.97;1.17;;;19.80;57.20;;;19.14;43.74;97879.75;5072009;28;20410;-72
2022/08/09 00:27:13;;;;;;;3.28;1.30;;;19.80;57.10;;;19.15;44.20;97878.66;5072419;28;20399;-72
2022/08/09 00:29:40;;;;;;;1.88;1.13;;;19.80;57.70;;;19.09;44.02;97880.66;5072242;28;20406;-72
2022/08/09 00:32:06;;;;;;;2.70;1.10;;;19.70;57.50;;;19.06;44.03;97883.91;5072261;28;20896;-71
2022/08/09 00:34:32;;;;;;;3.03;1.17;;;19.70;57.60;;;19.06;44.18;97878.53;5071964;28;20434;-71
2022/08/09 00:36:59;;;;;;;2.60;1.50;;;19.80;57.60;;;19.12;43.82;97884.59;5054255;28;20448;-72
2022/08/09 00:39:24;;;;;;;1.70;1.20;;;19.80;57.40;;;19.03;44.33;97876.44;5072021;28;20419;-72
2022/08/09 00:41:51;;;;;;;1.73;1.17;;;19.70;57.50;;;19.03;43.99;97881.78;5072092;28;20764;-72
2022/08/09 00:44:16;;;;;;;2.78;1.20;;;19.70;57.30;;;19.08;43.90;97873.69;5071728;28;20395;-72
2022/08/09 00:46:44;;;;;;;1.73;1.20;;;19.80;57.20;;;19.10;44.34;97881.41;5072049;28;20730;-72
2022/08/09 00:49:10;;;;;;;2.05;1.10;;;19.70;57.50;;;19.06;44.46;97875.84;5071890;28;20403;-72
2022/08/09 00:51:36;;;;;;;1.50;1.20;;;19.70;57.90;;;18.98;44.52;97879.19;5072067;28;20407;-72
2022/08/09 00:54:03;;;;;;;4.15;1.42;;;19.70;58.00;;;18.97;44.19;97876.81;5071403;28;20395;-72
2022/08/09 00:56:31;;;;;;;1.27;1.10;;;19.60;57.80;;;18.86;44.65;97870.81;5071285;28;20546;-72
2022/08/09 00:58:58;;;;;;;4.05;1.60;;;19.50;58.00;;;18.87;44.38;97864.34;5071716;28;20418;-72
2022/08/09 01:01:33;;;;;;;1.83;1.40;;;19.40;57.80;;;18.81;44.64;97870.88;5071608;28;20419;-72
2022/08/09 01:04:10;;;;;;;2.70;1.23;;;19.40;58.00;;;18.75;44.68;97869.38;5071173;28;20986;-72
2022/08/09 01:06:50;;;;;;;3.83;1.42;;;19.40;58.20;;;18.67;44.62;97870.81;5071715;28;20388;-72
2022/08/09 01:09:25;;;;;;;4.72;1.35;;;19.30;58.20;;;18.66;44.76;97863.88;5071349;28;20453;-73
2022/08/09 01:12:03;;;;;;;2.42;1.20;;;19.30;58.40;;;18.58;45.32;97864.53;5103098;22;20516;-72
2022/08/09 01:14:35;;;;;;;2.25;1.23;;;19.30;58.60;;;18.57;45.60;97865.59;5090701;28;20444;-72
2022/08/09 01:17:07;;;;;;;3.20;1.42;;;19.30;58.90;;;18.62;45.48;97867.44;5091661;28;20420;-72
2022/08/09 01:19:45;;;;;;;3.63;1.42;;;19.30;58.80;;;18.54;45.38;97872.34;5091480;28;20445;-72
2022/08/09 01:22:50;;;;;;;2.22;1.30;;;19.20;58.80;;;18.50;45.62;97867.81;5091657;28;20751;-72
2022/08/09 01:25:25;;;;;;;2.60;1.42;;;19.10;58.90;;;18.45;45.70;97875.94;5091369;28;20398;-72
2022/08/09 01:27:55;;;;;;;2.88;1.20;;;19.00;59.20;;;18.28;46.14;97881.78;5091460;28;20502;-72
2022/08/09 01:30:24;;;;;;;4.10;1.50;;;18.90;59.60;;;18.25;46.26;97877.03;5091264;28;20404;-72
2022/08/09 01:32:53;;;;;;;1.73;1.10;;;18.80;59.80;;;18.14;46.53;97883.59;5091027;28;20394;-72
2022/08/09 01:35:24;;;;;;;3.97;1.43;;;18.80;60.00;;;18.14;46.63;97878.22;5091141;28;20401;-72
2022/08/09 01:37:54;;;;;;;2.25;1.13;;;18.80;60.00;;;18.13;46.86;97885.47;5091420;28;20434;-72
2022/08/09 01:40:23;;;;;;;1.88;1.30;;;18.80;60.00;;;18.15;46.83;97893.22;5091244;28;20406;-72
2022/08/09 01:42:50;;;;;;;2.10;1.30;;;18.90;60.20;;;18.22;46.83;97891.00;5106377;28;20401;-72
2022/08/09 01:45:18;;;;;;;3.75;1.40;;;18.90;60.00;;;18.20;47.02;97895.84;5091032;28;20399;-72
2022/08/09 01:47:45;;;;;;;1.92;1.33;;;18.90;60.20;;;18.17;47.35;97896.44;5091173;28;20397;-72
2022/08/09 01:50:12;;;;;;;1.40;1.20;;;18.90;60.60;;;18.14;47.59;97903.16;5090946;28;20414;-72
2022/08/09 01:52:40;;;;;;;2.63;1.33;;;18.90;61.20;;;18.17;47.42;97899.91;5090942;28;20400;-72
2022/08/09 01:55:09;;;;;;;4.60;1.40;;;18.80;60.90;;;18.13;47.10;97903.44;5090791;28;20390;-72
2022/08/09 01:57:41;;;;;;;3.75;1.40;;;18.80;60.60;;;18.06;47.22;97903.78;5090916;28;20489;-72
2022/08/09 02:00:10;;;;;;;4.87;1.30;;;18.80;60.60;;;18.05;46.93;97898.69;5090847;28;20395;-72
2022/08/09 02:02:42;;;;;;;2.72;1.35;;;18.70;60.70;;;17.98;47.48;97893.69;5090751;28;20394;-72
2022/08/09 02:05:11;;;;;;;2.45;1.30;;;18.60;61.10;;;17.87;47.88;97894.91;5090657;28;20404;-72
2022/08/09 02:07:45;;;;;;;2.57;1.40;;;18.50;61.40;;;17.88;47.61;97899.19;5090069;28;20895;-71
2022/08/09 02:10:16;;;;;;;2.22;1.42;;;18.50;61.30;;;17.82;47.59;97902.97;5106130;28;20909;-71
2022/08/09 02:12:43;;;;;;;3.10;1.45;;;18.50;61.10;;;17.81;47.61;97903.28;5090520;28;20726;-71
2022/08/09 02:15:11;;;;;;;3.08;1.42;;;18.50;61.40;;;17.83;47.70;97909.13;5090465;28;20957;-71
2022/08/09 02:17:40;;;;;;;4.00;1.40;;;18.50;61.40;;;17.74;47.84;97904.41;5090679;28;20962;-71
2022/08/09 02:20:08;;;;;;;7.07;1.50;;;18.40;61.40;;;17.69;47.85;97904.47;5090603;28;20401;-71
2022/08/09 02:22:38;;;;;;;3.78;1.30;;;18.40;61.40;;;17.69;48.04;97914.38;5090654;28;20393;-72
2022/08/09 02:25:15;;;;;;;1.85;1.20;;;18.40;61.60;;;17.65;48.23;97908.00;5090269;28;20792;-72
2022/08/09 02:27:49;;;;;;;3.93;1.50;;;18.40;61.80;;;17.68;48.24;97907.41;5090585;28;20967;-71
2022/08/09 02:30:15;;;;;;;1.88;1.40;;;18.40;62.80;;;17.64;48.30;97907.22;5090454;28;20890;-72
2022/08/09 02:32:46;;;;;;;1.77;1.40;;;18.30;62.00;;;17.62;48.53;97903.22;5090329;28;20493;-71
2022/08/09 02:35:20;;;;;;;2.58;1.40;;;18.40;62.30;;;17.61;48.70;97904.25;5089213;28;20393;-72
2022/08/09 02:37:50;;;;;;;2.88;1.30;;;18.20;62.40;;;17.48;49.02;97910.28;5090540;28;20401;-72
2022/08/09 02:40:19;;;;;;;2.00;1.40;;;18.10;62.90;;;17.40;49.39;97909.81;5090499;28;20873;-72
2022/08/09 02:42:49;;;;;;;1.60;1.30;;;18.10;63.40;;;17.40;49.53;97915.16;5090009;28;20426;-72
2022/08/09 02:45:22;;;;;;;5.13;1.60;;;18.10;63.40;;;17.45;49.11;97913.50;5090360;28;20405;-71
2022/08/09 02:47:51;;;;;;;2.47;1.40;;;18.10;63.00;;;17.41;49.24;97911.41;5090439;28;20413;-72
2022/08/09 02:50:25;;;;;;;5.40;1.70;;;18.00;63.20;;;17.34;49.74;97905.59;5090160;28;20453;-71
2022/08/09 02:52:57;;;;;;;4.22;1.92;;;17.90;63.80;;;17.22;49.72;97904.34;5089909;28;20433;-71
2022/08/09 02:55:25;;;;;;;2.63;1.58;;;17.80;64.20;;;17.20;50.66;97903.84;5090235;28;20422;-72
2022/08/09 02:57:54;;;;;;;2.08;1.55;;;17.80;64.70;;;17.09;50.86;97899.66;5090358;28;20390;-71
2022/08/09 03:00:22;;;;;;;1.55;1.27;;;17.70;65.00;;;17.06;50.97;97910.94;5090194;28;20390;-71
2022/08/09 03:02:54;;;;;;;3.50;1.50;;;17.80;65.20;;;17.08;51.00;97906.06;5089900;28;20409;-72
2022/08/09 03:05:21;;;;;;;1.95;1.30;;;17.80;65.10;;;17.10;50.89;97904.72;5090171;28;20439;-71
2022/08/09 03:07:49;;;;;;;2.83;1.60;;;17.90;65.00;;;17.16;50.75;97897.44;5090198;28;20430;-71
2022/08/09 03:10:15;;;;;;;2.15;1.42;;;17.80;65.00;;;17.12;51.08;97902.56;5089948;28;20454;-71
2022/08/09 03:12:43;;;;;;;3.08;1.50;;;17.80;65.30;;;17.13;51.16;97900.69;5089828;28;20884;-71
2022/08/09 03:15:11;;;;;;;2.58;1.67;;;17.80;65.30;;;17.03;51.54;97901.56;5089973;28;20401;-71
2022/08/09 03:17:38;;;;;;;4.15;1.60;;;17.70;65.80;;;17.03;51.74;97904.25;5090180;28;20390;-71
2022/08/09 03:20:08;;;;;;;2.20;1.70;;;17.70;66.20;;;16.98;52.12;97907.78;5092410;28;20863;-71
2022/08/09 03:22:39;;;;;;;2.42;1.70;;;17.60;66.30;;;16.98;51.91;97905.09;5093871;28;20394;-71
2022/08/09 03:25:08;;;;;;;3.70;1.60;;;17.60;66.60;;;16.90;52.23;97904.91;5093612;28;20402;-70
2022/08/09 03:27:35;;;;;;;5.13;2.10;;;17.50;66.70;;;16.82;52.60;97902.81;5093764;28;20751;-71
2022/08/09 03:30:02;;;;;;;2.85;1.50;;;17.50;67.00;;;16.87;52.56;97908.09;5093548;28;20410;-71
2022/08/09 03:32:30;;;;;;;2.70;1.60;;;17.50;67.10;;;16.80;52.78;97908.44;5093757;28;20402;-71
2022/08/09 03:34:57;;;;;;;3.00;1.50;;;17.50;67.30;;;16.81;52.99;97904.69;5093172;28;20437;-71
2022/08/09 03:37:24;;;;;;;2.53;1.50;;;17.50;67.40;;;16.85;52.96;97913.72;5093805;28;20771;-71
2022/08/09 03:39:50;;;;;;;2.50;1.50;;;17.60;67.40;;;16.86;52.90;97915.34;5093495;28;20425;-71
2022/08/09 03:42:16;;;;;;;4.25;1.85;;;17.60;67.40;;;16.88;52.87;97917.72;5093430;28;20405;-71
2022/08/09 03:44:42;;;;;;;3.20;1.70;;;17.40;67.40;;;16.72;53.21;97919.72;5093004;28;20404;-71
2022/08/09 03:47:08;;;;;;;2.80;1.50;;;17.40;67.80;;;16.67;53.40;97922.44;5093465;28;20409;-71
2022/08/09 03:49:36;;;;;;;4.20;1.67;;;17.40;68.00;;;16.70;53.18;97918.38;5093105;28;20460;-71
2022/08/09 03:52:04;;;;;;;4.15;1.90;;;17.40;68.00;;;16.68;53.12;97923.22;5093418;28;20394;-71
2022/08/09 03:54:36;;;;;;;2.95;1.80;;;17.30;68.00;;;16.66;53.52;97910.13;5092698;28;20818;-71
2022/08/09 03:57:05;;;;;;;2.63;1.70;;;17.30;68.30;;;16.49;54.19;97923.81;5093308;28;20405;-71
2022/08/09 03:59:32;;;;;;;2.45;1.60;;;17.20;68.90;;;16.48;54.37;97918.75;5093306;28;20425;-71
2022/08/09 04:01:59;;;;;;;3.47;1.60;;;17.20;69.10;;;16.48;54.53;97918.75;5093060;28;20432;-71
2022/08/09 04:04:26;;;;;;;5.15;1.63;;;17.20;69.10;;;16.52;54.07;97925.16;5092589;28;20809;-71
2022/08/09 04:06:51;;;;;;;1.92;1.70;;;17.30;69.20;;;16.52;54.03;97925.16;5093038;28;20390;-71
2022/08/09 04:09:17;;;;;;;3.25;1.70;;;17.20;69.00;;;16.51;54.08;97923.56;5092921;28;20433;-71
2022/08/09 04:12:16;;;;;;;3.15;1.67;;;17.30;69.10;;;16.46;54.11;97928.94;5092663;28;20394;-71
2022/08/09 04:14:42;;;;;;;3.25;1.77;;;17.20;69.30;;;16.44;54.49;97923.06;5092377;28;20405;-71
2022/08/09 04:17:08;;;;;;;4.90;1.70;;;17.20;69.30;;;16.47;54.28;97930.50;5092817;28;20398;-71
2022/08/09 04:19:34;;;;;;;3.00;1.80;;;17.20;69.20;;;16.44;54.32;97923.84;5092636;28;20394;-72
2022/08/09 04:22:00;;;;;;;4.95;1.85;;;17.20;69.30;;;16.49;54.28;97933.72;5092774;28;20409;-72
2022/08/09 04:24:26;;;;;;;3.80;1.92;;;17.30;69.30;;;16.52;54.22;97941.19;5092228;28;20911;-71
2022/08/09 04:26:54;;;;;;;3.45;1.67;;;17.20;69.30;;;16.47;54.38;97943.88;5092763;28;20433;-72
2022/08/09 04:29:20;;;;;;;3.75;2.08;;;17.20;69.40;;;16.46;54.64;97944.97;5092466;28;20497;-72
2022/08/09 04:31:46;;;;;;;4.63;2.00;;;17.20;69.50;;;16.43;54.60;97948.19;5091536;28;20513;-72
2022/08/09 04:34:12;;;;;;;3.05;1.80;;;17.10;70.70;;;16.35;54.63;97954.09;5091983;28;20458;-71
2022/08/09 04:36:38;;;;;;;3.08;1.58;;;17.00;70.00;;;16.31;55.06;97956.53;5092506;28;20485;-71
2022/08/09 04:39:09;;;;;;;4.22;1.88;;;17.00;70.40;;;16.33;55.07;97959.69;5092501;28;20518;-72
2022/08/09 04:41:35;;;;;;;3.88;1.98;;;17.10;70.40;;;16.44;55.16;97961.28;5092317;28;20447;-72
2022/08/09 04:44:04;;;;;;;3.70;1.90;;;17.10;70.40;;;16.42;55.43;97973.28;5107589;28;20406;-71
2022/08/09 04:46:30;;;;;;;2.63;1.75;;;17.10;70.60;;;16.41;55.45;97967.16;5091040;28;20422;-71
2022/08/09 04:48:56;;;;;;;2.20;1.77;;;17.10;70.80;;;16.46;55.55;97972.50;5092137;28;20968;-71
2022/08/09 04:51:22;;;;;;;2.50;1.77;;;17.20;70.90;;;16.50;55.64;97968.19;5092117;28;20465;-71
2022/08/09 04:53:48;;;;;;;5.63;1.80;;;17.30;71.00;;;16.55;55.74;97973.50;5091597;28;20390;-72
2022/08/09 04:56:14;;;;;;;4.25;1.83;;;17.30;71.00;;;16.56;55.90;97972.44;5091928;28;20504;-71
2022/08/09 04:58:40;;;;;;;2.70;2.00;;;17.30;71.20;;;16.61;55.78;97980.44;5092073;28;20390;-71
2022/08/09 05:01:07;;;;;;;2.20;1.65;;;17.30;71.20;;;16.68;55.82;97985.50;5091895;28;20402;-72
2022/08/09 05:03:33;;;;;;;1.85;1.60;;;17.40;71.20;;;16.76;55.67;97984.13;5091420;28;20398;-71
2022/08/09 05:05:59;;;;;;;1.98;1.70;;;17.50;71.00;;;16.84;55.54;97980.88;5091910;28;20413;-72
2022/08/09 05:08:25;;;;;;;1.48;1.38;;;17.60;71.00;;;16.92;55.56;97983.75;5091926;28;20406;-71
2022/08/09 05:10:51;;;;;;;2.53;1.70;;;17.70;70.90;;;17.00;55.29;97982.34;5091447;28;20458;-71
2022/08/09 05:13:17;;;;;;;2.17;1.50;;;17.70;70.70;;;17.10;55.48;97989.53;5091425;28;20454;-72
2022/08/09 05:15:43;;;;;;;1.67;1.50;;;17.80;70.70;;;17.17;55.45;97982.78;5091661;28;20894;-70
2022/08/09 05:18:10;;;;;;;2.55;1.67;;;17.90;70.70;;;17.26;55.34;97981.13;5091655;28;20501;-71
2022/08/09 05:20:36;;;;;;;2.85;1.70;;;18.00;70.60;;;17.36;55.59;97982.94;5091501;28;20489;-71
2022/08/09 05:23:02;;;;;;;2.17;1.55;;;18.10;70.70;;;17.44;55.65;97984.19;5091166;28;20405;-71
2022/08/09 05:25:28;;;;;;;5.87;1.80;;;18.20;70.80;;;17.50;55.53;97983.06;5091327;28;20428;-72
2022/08/09 05:27:54;;;;;;;3.17;1.80;;;18.30;70.80;;;17.57;55.33;97991.59;5091322;28;20929;-71
2022/08/09 05:30:20;;;;;;;3.25;1.83;;;18.30;70.70;;;17.61;55.35;97995.28;5091252;28;20414;-72
2022/08/09 05:32:46;;;;;;;2.38;1.80;;;18.40;70.60;;;17.66;55.34;97997.97;5091025;28;20402;-72
2022/08/09 05:35:13;;;;;;;3.55;1.80;;;18.40;70.70;;;17.71;55.61;97998.72;5091234;28;20460;-72
2022/08/09 05:37:39;;;;;;;1.40;1.27;;;18.50;70.90;;;17.75;55.71;98002.41;5091293;28;20481;-71
2022/08/09 05:40:06;;;;;;;2.42;1.60;;;18.50;71.00;;;17.81;55.67;97997.81;5091228;28;20416;-71
2022/08/09 05:42:33;;;;;;;3.95;1.75;;;18.60;71.20;;;17.87;55.33;97999.38;5090906;28;20409;-72
2022/08/09 05:44:59;;;;;;;3.35;2.20;;;18.60;70.90;;;17.94;55.17;97991.00;5106443;28;20767;-72
2022/08/09 05:47:26;;;;;;;3.13;2.10;;;18.60;70.60;;;18.01;54.76;97992.25;5091095;28;20867;-72
2022/08/09 05:49:53;;;;;;;3.58;2.10;;;18.70;70.40;;;18.08;54.91;98005.31;5090932;28;20825;-72
2022/08/09 05:52:22;;;;;;;6.30;2.00;;;18.80;70.40;;;18.14;54.69;98004.97;5091017;28;20428;-71
2022/08/09 05:54:48;;;;;;;2.80;1.83;;;18.80;70.20;;;18.20;54.73;98003.03;5090528;28;20394;-72
2022/08/09 05:57:14;;;;;;;2.63;1.80;;;18.90;70.30;;;18.26;54.98;98003.78;5090893;28;20410;-72
2022/08/09 05:59:40;;;;;;;2.97;1.67;;;19.00;70.50;;;18.31;55.14;98007.19;5090825;28;20543;-72
2022/08/09 06:02:07;;;;;;;3.17;2.00;;;19.00;71.30;;;18.38;55.00;98014.91;5090842;28;20406;-71
2022/08/09 06:04:35;;;;;;;5.28;2.10;;;19.10;70.60;;;18.44;54.04;98011.06;5090248;28;20463;-72
2022/08/09 06:07:01;;;;;;;5.07;2.17;;;19.10;69.80;;;18.49;53.78;98013.72;5090743;28;20917;-72
2022/08/09 06:09:28;;;;;;;3.97;1.85;;;19.10;69.20;;;18.53;53.96;98010.16;5090722;28;20801;-72
2022/08/09 06:11:54;;;;;;;3.55;2.00;;;19.20;69.30;;;18.59;53.68;98023.53;5090578;28;20812;-72
2022/08/09 06:14:20;;;;;;;3.97;1.92;;;19.20;69.10;;;18.61;53.19;98030.19;5090169;28;20473;-72
2022/08/09 06:16:46;;;;;;;3.58;1.95;;;19.30;68.90;;;18.65;53.17;98019.69;5090586;28;20395;-72
2022/08/09 06:19:13;;;;;;;5.60;2.13;;;19.30;68.60;;;18.70;53.02;98028.47;5090545;28;20937;-71
2022/08/09 06:21:39;;;;;;;4.30;1.97;;;19.30;68.40;;;18.73;52.85;98030.56;5090669;28;20408;-71
2022/08/09 06:24:06;;;;;;;3.15;1.90;;;19.40;68.30;;;18.76;52.64;98035.38;5090119;28;20451;-71
2022/08/09 06:26:35;;;;;;;5.07;2.20;;;19.40;68.10;;;18.80;52.54;98033.69;5090422;28;21094;-72
2022/08/09 06:29:01;;;;;;;3.08;1.88;;;19.40;68.00;;;18.84;52.23;98033.94;5090445;28;20445;-72
2022/08/09 06:31:28;;;;;;;3.08;1.85;;;19.50;67.60;;;18.88;52.14;98038.44;5090526;28;20488;-72
2022/08/09 06:33:54;;;;;;;3.00;1.88;;;19.50;67.60;;;18.91;52.01;98035.19;5089950;28;20438;-72
2022/08/09 06:36:19;;;;;;;8.18;2.13;;;19.50;67.30;;;18.95;51.78;98036.19;5090294;28;20493;-72
2022/08/09 06:38:45;;;;;;;5.47;2.22;;;19.60;67.30;;;19.00;51.66;98039.91;5090498;28;20483;-71
2022/08/09 06:41:11;;;;;;;4.15;2.33;;;19.60;67.00;;;19.04;51.73;98038.22;5090236;28;20961;-72
2022/08/09 06:43:39;;;;;;;3.63;2.17;;;19.70;67.00;;;19.08;51.32;98034.69;5089839;28;20394;-72
2022/08/09 06:46:05;;;;;;;6.18;2.15;;;19.70;66.90;;;19.13;51.61;98039.97;5090295;28;20732;-72
2022/08/09 06:48:31;;;;;;;5.78;2.60;;;19.80;67.00;;;19.19;51.42;98046.06;5090257;28;20405;-72
2022/08/09 06:50:58;;;;;;;4.05;2.42;;;19.80;66.80;;;19.23;51.19;98045.22;5090058;28;20424;-72
2022/08/09 06:53:23;;;;;;;6.10;2.40;;;19.90;66.70;;;19.28;51.29;98039.75;5089924;28;20917;-71
2022/08/09 06:55:49;;;;;;;4.88;2.08;;;19.90;66.60;;;19.34;51.19;98048.53;5093909;28;20394;-72
2022/08/09 06:58:15;;;;;;;4.72;2.10;;;19.90;66.30;;;19.37;51.00;98047.94;5094333;28;20887;-72
2022/08/09 07:00:43;;;;;;;6.18;2.33;;;20.00;66.30;;;19.42;51.14;98047.88;5094145;28;20390;-72
2022/08/09 07:03:09;;;;;;;8.27;2.45;;;20.10;66.40;;;19.46;51.09;98042.72;5093768;28;20736;-72
2022/08/09 07:05:34;;;;;;;4.50;2.10;;;20.10;66.40;;;19.50;51.03;98049.13;5094106;28;20413;-72
2022/08/09 07:08:00;;;;;;;8.07;2.40;;;20.10;66.20;;;19.54;50.83;98048.25;5094017;28;20458;-72
2022/08/09 07:10:26;;;;;;;3.50;2.00;;;20.20;66.10;;;19.59;50.69;98056.22;5104008;22;20419;-72
2022/08/09 07:12:52;;;;;;;6.22;2.10;;;20.20;66.10;;;19.64;50.91;98058.81;5072930;28;20482;-73
2022/08/09 07:15:18;;;;;;;6.55;2.60;;;20.20;66.00;;;19.68;50.90;98059.06;5073660;28;20403;-73
2022/08/09 07:17:46;;;;;;;5.82;2.35;;;20.30;66.00;;;19.73;50.84;98053.59;5073679;28;20400;-72
2022/08/09 07:20:12;;;;;;;4.68;2.58;;;20.30;66.00;;;19.79;50.74;98062.34;5073496;28;20403;-72
2022/08/09 07:22:38;;;;;;;3.78;2.30;;;20.40;65.90;;;19.84;50.36;98054.22;5073443;28;20422;-73
2022/08/09 07:25:05;;;;;;;6.38;2.25;;;20.40;65.60;;;19.88;50.25;98065.97;5073360;28;20904;-72
2022/08/09 07:27:31;;;;;;;4.57;2.22;;;20.50;65.50;;;19.95;49.76;98059.13;5073393;28;20396;-73
2022/08/09 07:29:58;;;;;;;3.57;2.20;;;20.50;64.90;;;20.00;49.86;98060.91;5073245;28;20494;-73
2022/08/09 07:32:24;;;;;;;3.40;1.90;;;20.60;65.10;;;20.06;49.88;98062.44;5073339;28;20399;-72
2022/08/09 07:34:52;;;;;;;4.53;2.30;;;20.70;65.20;;;20.13;49.42;98070.13;5072873;28;20399;-72
2022/08/09 07:37:17;;;;;;;11.13;2.33;;;20.70;64.70;;;20.19;49.47;98068.94;5073297;28;20422;-72
2022/08/09 07:39:43;;;;;;;4.35;2.47;;;20.80;64.40;;;20.23;48.79;98078.78;5073434;28;21026;-72
2022/08/09 07:42:10;;;;;;;5.18;2.65;;;20.80;63.70;;;20.35;48.49;98071.09;5073109;28;20408;-72
2022/08/09 07:44:36;;;;;;;4.00;2.30;;;20.90;63.50;;;20.41;48.13;98067.19;5072781;28;21076;-73
2022/08/09 07:47:02;;;;;;;5.77;2.40;;;21.00;63.10;;;20.46;48.01;98072.47;5073134;28;20396;-72
2022/08/09 07:49:28;;;;;;;3.53;2.30;;;21.10;62.90;;;20.51;47.58;98074.28;5072960;28;20496;-72
2022/08/09 07:51:55;;;;;;;7.53;2.20;;;21.10;62.30;;;20.61;47.45;98081.34;5072921;28;20892;-72
2022/08/09 07:54:21;;;;;;;4.30;2.15;;;21.20;62.30;;;20.65;47.68;98080.47;5072519;28;20490;-72
2022/08/09 07:56:47;;;;;;;7.15;2.33;;;21.20;62.30;;;20.71;47.59;98084.63;5072991;28;20410;-73
2022/08/09 07:59:13;;;;;;;4.07;2.55;;;21.30;62.30;;;20.76;47.25;98084.53;5072920;28;20397;-72
2022/08/09 08:01:39;;;;;;;5.07;2.10;;;21.30;61.80;;;20.82;47.04;98077.94;5072805;28;20395;-72
2022/08/09 08:04:05;;;;;;;3.97;2.27;;;21.40;61.70;;;20.88;47.17;98084.03;5072307;28;20400;-72
2022/08/09 08:06:31;;;;;;;5.90;2.40;;;21.50;61.80;;;20.96;46.67;98071.78;5071201;28;20441;-72
2022/08/09 08:08:59;;;;;;;4.70;2.38;;;21.50;61.20;;;21.05;46.35;98078.81;5072686;28;20406;-73
2022/08/09 08:11:25;;;;;;;5.00;2.33;;;21.60;60.90;;;21.13;46.59;98078.09;5072531;28;20414;-73
2022/08/09 08:13:51;;;;;;;5.35;2.10;;;21.70;61.10;;;21.22;45.93;98079.03;5072177;28;20395;-73
2022/08/09 08:16:17;;;;;;;7.80;2.30;;;21.80;60.60;;;21.32;45.16;98078.00;5072508;28;20396;-73
2022/08/09 08:18:42;;;;;;;7.00;2.40;;;21.90;59.50;;;21.39;44.90;98089.16;5072751;28;20402;-73
2022/08/09 08:21:08;;;;;;;4.32;2.13;;;22.00;59.30;;;21.49;45.07;98082.75;5072347;28;20486;-72
2022/08/09 08:23:34;;;;;;;3.80;1.85;;;22.00;59.50;;;21.60;44.43;98076.81;5071918;28;20452;-72
2022/08/09 08:26:02;;;;;;;4.97;2.10;;;22.20;58.90;;;21.70;44.08;98081.16;5072340;28;20415;-71
2022/08/09 08:28:28;;;;;;;7.73;2.07;;;22.30;58.50;;;21.81;44.27;98077.13;5072408;28;20403;-73
2022/08/09 08:30:54;;;;;;;4.22;2.00;;;22.40;58.70;;;21.92;44.19;98091.94;5072132;28;20412;-73
2022/08/09 08:33:20;;;;;;;3.90;1.80;;;22.50;58.60;;;22.03;44.05;98089.03;5071880;28;21002;-72
2022/08/09 08:35:46;;;;;;;3.27;1.70;;;22.50;58.30;;;22.13;43.98;98086.06;5072267;28;21163;-72
2022/08/09 08:38:12;;;;;;;5.10;2.20;;;22.60;58.30;;;22.19;43.23;98088.31;5072162;28;20435;-72
2022/08/09 08:40:39;;;;;;;4.25;2.20;;;22.70;57.40;;;22.31;42.98;98085.06;5072048;28;20753;-72
2022/08/09 08:43:06;;;;;;;3.97;1.92;;;22.80;57.40;;;22.40;43.21;98085.91;5071675;28;20456;-73
2022/08/09 08:45:37;;;;;;;4.03;2.10;;;22.90;57.60;;;22.49;43.64;98083.22;5071929;28;20404;-73
2022/08/09 08:48:04;;;;;;;3.63;1.92;;;23.00;57.70;;;22.60;43.02;98088.06;5071850;28;20396;-72
2022/08/09 08:50:31;;;;;;;4.05;1.75;;;23.10;57.30;;;22.67;42.57;98088.38;5071689;28;20814;-73
2022/08/09 08:52:57;;;;;;;3.60;2.00;;;23.20;56.90;;;22.77;43.05;98088.16;5071476;28;20403;-72
2022/08/09 08:55:23;;;;;;;3.80;2.03;;;23.30;57.30;;;22.90;42.86;98091.03;5071705;28;20474;-72
2022/08/09 08:57:49;;;;;;;3.50;1.83;;;23.40;57.20;;;23.01;42.82;98092.31;5071779;28;20502;-73
2022/08/09 09:00:16;;;;;;;3.05;1.70;;;23.50;57.10;;;23.09;42.21;98084.22;5071652;28;20461;-72
2022/08/09 09:02:44;;;;;;;4.57;2.10;;;23.60;56.50;;;23.13;41.46;98087.13;5071333;28;20872;-71
2022/08/09 09:05:12;;;;;;;2.55;1.50;;;23.60;55.60;;;23.23;41.84;98094.13;5071211;28;20817;-72
2022/08/09 09:07:42;;;;;;;3.70;1.73;;;23.70;56.10;;;23.31;42.12;98091.41;5071469;28;20916;-72
2022/08/09 09:10:09;;;;;;;2.53;1.48;;;23.70;56.20;;;23.40;41.28;98094.13;5071261;28;20453;-72
2022/08/09 09:12:36;;;;;;;3.80;1.70;;;23.90;55.60;;;23.47;40.80;98091.75;5071427;28;20400;-72
2022/08/09 09:15:05;;;;;;;6.40;2.03;;;24.00;55.50;;;23.49;39.95;98087.66;5071064;28;20465;-73
2022/08/09 09:17:33;;;;;;;3.58;2.00;;;24.10;54.00;;;23.55;39.39;98088.28;5053023;28;20422;-72
2022/08/09 09:19:59;;;;;;;2.53;1.50;;;24.10;53.50;;;23.66;39.69;98080.66;5071173;28;20473;-71
2022/08/09 09:22:25;;;;;;;3.00;1.73;;;24.20;54.00;;;23.74;39.95;98082.56;5071250;28;20800;-72
2022/08/09 09:24:53;;;;;;;4.00;1.63;;;24.20;54.30;;;23.82;39.80;98084.47;5070848;28;20399;-72
2022/08/09 09:27:24;;;;;;;3.80;1.77;;;24.30;54.00;;;23.90;39.37;98086.38;5071255;28;20402;-73
2022/08/09 09:29:50;;;;;;;3.40;1.40;;;24.40;53.40;;;24.02;39.67;98080.28;5071168;28;20468;-72
2022/08/09 09:32:21;;;;;;;4.15;1.52;;;24.50;53.80;;;24.14;39.43;98067.69;5071094;28;20407;-72
2022/08/09 09:35:07;;;;;;;6.22;2.08;;;24.60;53.80;;;24.22;38.21;98080.44;5070535;28;20403;-72
2022/08/09 09:37:33;;;;;;;4.20;1.73;;;24.70;52.30;;;24.32;37.77;98078.50;5071021;28;20851;-72
2022/08/09 09:39:59;;;;;;;2.50;1.77;;;24.80;52.00;;;24.42;38.12;98076.25;5070875;28;20888;-73
2022/08/09 09:42:30;;;;;;;3.58;1.50;;;24.80;52.20;;;24.51;38.03;98073.50;5070933;28;20501;-72
2022/08/09 09:44:58;;;;;;;4.40;1.57;;;24.90;52.10;;;24.58;37.84;98071.09;5070547;28;20392;-72
2022/08/09 09:47:25;;;;;;;4.20;1.85;;;25.00;52.10;;;24.69;36.48;98080.41;5070844;28;20395;-71
2022/08/09 09:49:53;;;;;;;3.45;1.77;;;25.10;50.60;;;24.87;36.24;98070.28;5070769;28;20447;-72
2022/08/09 09:52:21;;;;;;;2.40;1.40;;;25.30;50.30;;;24.97;35.61;98075.34;5070686;28;20482;-72
2022/08/09 09:54:47;;;;;;;4.27;1.80;;;25.40;49.60;;;25.13;35.09;98070.16;5070409;28;20442;-72
2022/08/09 09:57:19;;;;;;;3.45;1.65;;;25.60;48.90;;;25.42;34.93;98078.22;5069996;28;20510;-72
2022/08/09 09:59:48;;;;;;;4.65;1.55;;;25.90;48.80;;;25.71;33.86;98075.47;5070746;28;20396;-73
2022/08/09 10:02:16;;;;;;;3.88;1.60;;;26.30;47.70;;;26.12;32.40;98068.38;5070487;28;20878;-72
2022/08/09 10:04:42;;;;;;;5.10;1.43;;;26.70;46.20;;;26.52;32.21;98065.88;5070267;28;20400;-72
2022/08/09 10:07:25;;;;;;;3.28;1.50;;;27.20;45.50;;;26.85;31.19;98065.75;5070696;28;20438;-72
2022/08/09 10:09:54;;;;;;;3.15;1.50;;;27.70;44.50;;;27.10;30.97;98058.41;5070564;28;20415;-72
2022/08/09 10:12:27;;;;;;;4.75;1.65;;;28.00;44.10;;;27.30;30.78;98063.66;5070459;28;20456;-72
2022/08/09 10:15:05;;;;;;;5.63;1.67;;;28.10;43.70;;;27.38;30.08;98059.22;5070015;28;20502;-72
2022/08/09 10:17:33;;;;;;;4.18;1.60;;;28.20;43.30;;;27.46;30.13;98054.78;5070346;28;20407;-72
2022/08/09 10:20:00;;;;;;;3.35;1.50;;;28.20;43.30;;;27.50;30.63;98055.69;5069201;28;20500;-72
2022/08/09 10:22:36;;;;;;;3.17;1.50;;;28.10;43.70;;;27.39;30.64;98063.53;5070503;28;20403;-72